createdAt,value
2019-05-01T00:00:37.018Z,13.50
2019-05-01T00:03:09.623Z,13.00
2019-05-01T00:05:51.400Z,9.87
2019-05-01T00:08:19.657Z,11.50
2019-05-01T00:10:47.885Z,12.83
2019-05-01T00:13:16.151Z,12.87
2019-05-01T00:15:44.392Z,12.30
2019-05-01T00:18:12.643Z,15.33
2019-05-01T00:20:40.904Z,10.47
2019-05-01T00:23:09.158Z,12.27
2019-05-01T00:25:37.382Z,15.37
2019-05-01T00:28:05.980Z,12.30
2019-05-01T00:30:35.500Z,11.53
2019-05-01T00:33:03.745Z,12.00
2019-05-01T00:35:31.973Z,13.53
2019-05-01T00:38:00.232Z,11.10
2019-05-01T00:40:28.491Z,13.20
2019-05-01T00:42:56.761Z,15.20
2019-05-01T00:45:25.012Z,11.40
2019-05-01T00:47:53.293Z,13.93
2019-05-01T00:50:21.561Z,13.27
2019-05-01T00:52:49.797Z,12.20
2019-05-01T00:55:35.950Z,13.37
2019-05-01T00:58:05.836Z,12.50
2019-05-01T01:00:54.025Z,12.17
2019-05-01T01:03:22.458Z,13.40
2019-05-01T01:05:50.688Z,11.43
2019-05-01T01:08:18.917Z,11.70
2019-05-01T01:10:47.171Z,14.23
2019-05-01T01:13:15.397Z,13.63
2019-05-01T01:15:43.655Z,13.67
2019-05-01T01:18:11.895Z,12.47
2019-05-01T01:20:40.152Z,12.37
2019-05-01T01:23:08.380Z,12.03
2019-05-01T01:25:37.204Z,14.20
2019-05-01T01:28:17.584Z,12.53
2019-05-01T01:30:55.615Z,13.43
2019-05-01T01:33:15.797Z,19.67
2019-05-01T01:35:44.040Z,12.23
2019-05-01T01:38:12.285Z,11.33
2019-05-01T01:40:40.566Z,13.17
2019-05-01T01:43:26.653Z,11.87
2019-05-01T01:45:59.005Z,12.90
2019-05-01T01:48:27.246Z,12.37
2019-05-01T01:50:55.517Z,14.90
2019-05-01T01:53:23.770Z,12.73
2019-05-01T01:55:52.034Z,13.13
2019-05-01T01:58:20.265Z,14.60
2019-05-01T02:01:09.666Z,12.90
2019-05-01T02:03:43.774Z,11.33
2019-05-01T02:06:12.039Z,11.47
2019-05-01T02:08:40.277Z,13.93
2019-05-01T02:11:08.519Z,14.67
2019-05-01T02:13:36.752Z,14.27
2019-05-01T02:16:05.003Z,13.23
2019-05-01T02:18:33.229Z,14.10
2019-05-01T02:21:01.493Z,15.20
2019-05-01T02:23:29.759Z,16.27
2019-05-01T02:25:58.009Z,16.57
2019-05-01T02:28:30.865Z,13.57
2019-05-01T02:31:26.685Z,14.23
2019-05-01T02:33:40.580Z,17.27
2019-05-01T02:36:08.853Z,14.93
2019-05-01T02:38:37.283Z,12.87
2019-05-01T02:41:06.464Z,14.47
2019-05-01T02:43:36.198Z,13.10
2019-05-01T02:46:04.446Z,12.70
2019-05-01T02:48:34.711Z,13.33
2019-05-01T02:51:03.769Z,13.83
2019-05-01T02:53:32.074Z,14.73
2019-05-01T02:56:17.036Z,15.23
2019-05-01T02:58:45.859Z,13.77
2019-05-01T03:01:14.477Z,15.67
2019-05-01T03:03:42.936Z,14.47
2019-05-01T03:06:11.177Z,14.00
2019-05-01T03:08:39.427Z,16.13
2019-05-01T03:11:07.672Z,15.73
2019-05-01T03:13:36.016Z,16.00
2019-05-01T03:16:04.512Z,17.23
2019-05-01T03:18:40.395Z,16.63
2019-05-01T03:21:10.269Z,15.10
2019-05-01T03:26:35.651Z,17.47
2019-05-01T03:29:05.239Z,15.90
2019-05-01T03:31:36.047Z,15.47
2019-05-01T03:34:04.309Z,17.65
2019-05-01T03:36:32.547Z,21.37
2019-05-01T03:39:00.800Z,37.27
2019-05-01T03:41:29.039Z,30.33
2019-05-01T03:43:57.377Z,29.17
2019-05-01T03:46:26.191Z,33.47
2019-05-01T03:48:54.441Z,24.83
2019-05-01T03:51:22.678Z,29.10
2019-05-01T03:53:50.938Z,35.40
2019-05-01T03:56:19.165Z,21.00
2019-05-01T03:58:47.430Z,24.97
2019-05-01T04:01:17.305Z,26.30
2019-05-01T04:03:49.934Z,22.40
2019-05-01T04:06:18.166Z,20.57
2019-05-01T04:08:46.594Z,19.43
2019-05-01T04:11:14.850Z,19.33
2019-05-01T04:13:43.077Z,21.20
2019-05-01T04:16:11.333Z,25.73
2019-05-01T04:18:39.569Z,24.53
2019-05-01T04:21:08.376Z,20.70
2019-05-01T04:23:37.415Z,22.20
2019-05-01T04:26:06.802Z,17.20
2019-05-01T04:28:39.470Z,20.17
2019-05-01T04:31:27.471Z,43.03
2019-05-01T04:33:57.394Z,21.50
2019-05-01T04:36:27.336Z,20.60
2019-05-01T04:38:55.755Z,20.20
2019-05-01T04:41:24.014Z,20.93
2019-05-01T04:43:52.271Z,26.33
2019-05-01T04:46:20.529Z,28.40
2019-05-01T04:48:49.335Z,33.30
2019-05-01T04:51:18.061Z,35.73
2019-05-01T04:53:46.650Z,38.27
2019-05-01T04:56:14.908Z,41.77
2019-05-01T04:58:43.138Z,44.07
2019-05-01T05:01:11.396Z,34.20
2019-05-01T05:03:39.639Z,31.93
2019-05-01T05:06:07.915Z,28.50
2019-05-01T05:08:36.180Z,32.50
2019-05-01T05:11:06.049Z,24.07
2019-05-01T05:13:35.946Z,27.43
2019-05-01T05:16:20.650Z,30.80
2019-05-01T05:18:48.890Z,42.10
2019-05-01T05:21:17.148Z,29.40
2019-05-01T05:23:45.380Z,26.90
2019-05-01T05:26:13.652Z,22.73
2019-05-01T05:28:41.890Z,27.30
2019-05-01T05:31:10.124Z,27.17
2019-05-01T05:33:38.531Z,22.60
2019-05-01T05:36:06.896Z,21.87
2019-05-01T05:38:36.828Z,18.60
2019-05-01T05:41:05.072Z,19.20
2019-05-01T05:43:33.320Z,17.70
2019-05-01T05:46:01.553Z,19.47
2019-05-01T05:48:29.907Z,18.37
2019-05-01T05:51:03.453Z,21.97
2019-05-01T05:53:39.286Z,22.17
2019-05-01T05:56:09.202Z,17.77
2019-05-01T05:58:45.792Z,16.37
2019-05-01T06:01:21.455Z,14.00
2019-05-01T06:04:03.430Z,16.27
2019-05-01T06:06:36.478Z,18.73
2019-05-01T06:09:08.957Z,19.23
2019-05-01T06:11:43.294Z,20.47
2019-05-01T06:14:13.337Z,31.00
2019-05-01T06:16:58.295Z,32.40
2019-05-01T06:19:28.196Z,34.30
2019-05-01T06:22:14.584Z,33.10
2019-05-01T06:24:53.704Z,33.97
2019-05-01T06:27:21.981Z,26.67
2019-05-01T06:29:50.246Z,26.90
2019-05-01T06:32:18.482Z,26.73
2019-05-01T06:34:46.737Z,26.50
2019-05-01T06:37:14.983Z,28.20
2019-05-01T06:39:47.841Z,26.00
2019-05-01T06:42:15.125Z,26.73
2019-05-01T06:44:44.909Z,28.40
2019-05-01T06:47:14.787Z,24.60
2019-05-01T06:49:50.616Z,29.97
2019-05-01T06:52:24.823Z,23.80
2019-05-01T06:54:53.705Z,23.73
2019-05-01T06:57:21.946Z,25.25
2019-05-01T06:59:50.200Z,24.65
2019-05-01T07:02:18.617Z,28.07
2019-05-01T07:04:47.651Z,23.03
2019-05-01T07:07:25.061Z,25.97
2019-05-01T07:09:49.371Z,26.75
2019-05-01T07:12:17.521Z,28.32
2019-05-01T07:14:47.039Z,26.55
2019-05-01T07:17:15.763Z,22.77
2019-05-01T07:19:51.790Z,25.50
2019-05-01T07:22:20.049Z,24.65
2019-05-01T07:24:49.133Z,24.95
2019-05-01T07:27:18.797Z,29.25
2019-05-01T07:29:49.088Z,24.20
2019-05-01T07:32:17.414Z,26.90
2019-05-01T07:34:48.775Z,24.07
2019-05-01T07:37:16.123Z,23.73
2019-05-01T07:39:49.394Z,24.50
2019-05-01T07:42:33.979Z,24.23
2019-05-01T07:45:08.324Z,29.65
2019-05-01T07:47:38.470Z,25.68
2019-05-01T07:50:10.712Z,24.30
2019-05-01T07:52:39.142Z,25.43
2019-05-01T07:55:07.389Z,25.52
2019-05-01T07:57:39.623Z,31.50
2019-05-01T08:00:08.627Z,24.90
2019-05-01T08:02:37.057Z,26.37
2019-05-01T08:05:10.038Z,25.75
2019-05-01T08:07:36.041Z,25.90
2019-05-01T08:10:06.764Z,27.40
2019-05-01T08:12:35.102Z,23.02
2019-05-01T08:15:03.610Z,22.15
2019-05-01T08:17:33.591Z,22.07
2019-05-01T08:20:09.976Z,21.82
2019-05-01T08:22:37.523Z,21.62
2019-05-01T08:25:06.968Z,20.90
2019-05-01T08:27:36.872Z,20.97
2019-05-01T08:30:24.945Z,19.42
2019-05-01T08:33:14.775Z,22.37
2019-05-01T08:35:41.114Z,21.62
2019-05-01T08:38:09.422Z,20.35
2019-05-01T08:40:37.712Z,24.75
2019-05-01T08:43:05.974Z,20.88
2019-05-01T08:45:48.073Z,20.80
2019-05-01T08:48:20.803Z,23.07
2019-05-01T08:50:49.063Z,20.20
2019-05-01T08:53:18.039Z,19.75
2019-05-01T08:55:47.376Z,18.93
2019-05-01T08:58:16.000Z,24.25
2019-05-01T09:00:44.356Z,23.32
2019-05-01T09:03:13.543Z,21.52
2019-05-01T09:05:42.595Z,19.40
2019-05-01T09:08:11.053Z,18.40
2019-05-01T09:10:39.740Z,17.90
2019-05-01T09:13:08.015Z,21.95
2019-05-01T09:15:36.281Z,17.15
2019-05-01T09:18:04.557Z,17.65
2019-05-01T09:20:34.164Z,15.32
2019-05-01T09:23:02.453Z,14.28
2019-05-01T09:25:35.281Z,16.52
2019-05-01T09:28:05.688Z,14.43
2019-05-01T09:30:47.317Z,20.70
2019-05-01T09:33:15.577Z,14.73
2019-05-01T09:35:45.292Z,17.37
2019-05-01T09:38:13.919Z,15.07
2019-05-01T09:40:42.245Z,13.53
2019-05-01T09:43:10.505Z,14.85
2019-05-01T09:45:38.775Z,15.72
2019-05-01T09:48:08.626Z,15.20
2019-05-01T09:50:38.541Z,15.53
2019-05-01T09:53:29.663Z,13.63
2019-05-01T09:56:07.805Z,17.90
2019-05-01T09:58:34.432Z,13.43
2019-05-01T10:01:02.740Z,16.32
2019-05-01T10:03:30.967Z,13.95
2019-05-01T10:05:59.256Z,14.05
2019-05-01T10:08:27.511Z,16.20
2019-05-01T10:10:59.902Z,14.43
2019-05-01T10:13:25.784Z,12.53
2019-05-01T10:15:54.060Z,11.18
2019-05-01T10:18:22.312Z,12.80
2019-05-01T10:20:50.555Z,12.20
2019-05-01T10:23:18.816Z,12.37
2019-05-01T10:25:49.807Z,11.63
2019-05-01T10:28:19.785Z,16.37
2019-05-01T10:30:49.744Z,13.13
2019-05-01T10:33:19.626Z,14.20
2019-05-01T10:36:01.516Z,9.70
2019-05-01T10:38:29.760Z,15.83
2019-05-01T10:40:58.040Z,11.25
2019-05-01T10:43:26.256Z,10.32
2019-05-01T10:45:54.544Z,13.25
2019-05-01T10:48:22.784Z,13.30
2019-05-01T10:50:51.028Z,11.25
2019-05-01T10:53:19.257Z,9.00
2019-05-01T10:55:47.525Z,11.53
2019-05-01T10:58:17.947Z,10.40
2019-05-01T11:00:47.438Z,13.30
2019-05-01T11:03:15.736Z,12.07
2019-05-01T11:05:55.244Z,9.45
2019-05-01T11:08:14.028Z,12.00
2019-05-01T11:10:42.264Z,13.28
2019-05-01T11:13:10.514Z,15.43
2019-05-01T11:15:38.769Z,11.03
2019-05-01T11:18:07.143Z,13.50
2019-05-01T11:20:35.387Z,11.63
2019-05-01T11:23:03.690Z,11.10
2019-05-01T11:25:32.081Z,12.78
2019-05-01T11:28:00.365Z,13.45
2019-05-01T11:30:28.689Z,10.95
2019-05-01T11:33:01.578Z,10.00
2019-05-01T11:35:31.437Z,8.48
2019-05-01T11:38:04.338Z,11.53
2019-05-01T11:40:34.233Z,12.58
2019-05-01T11:43:02.847Z,15.60
2019-05-01T11:45:31.129Z,11.83
2019-05-01T11:47:59.400Z,11.48
2019-05-01T11:50:27.625Z,8.43
2019-05-01T11:53:15.328Z,10.63
2019-05-01T11:55:43.557Z,11.22
2019-05-01T11:58:11.838Z,10.13
2019-05-01T12:00:40.095Z,11.00
2019-05-01T12:03:08.351Z,10.00
2019-05-01T12:05:36.657Z,8.28
2019-05-01T12:08:04.954Z,9.58
2019-05-01T12:10:33.200Z,10.65
2019-05-01T12:13:01.493Z,13.55
2019-05-01T12:15:29.735Z,10.03
2019-05-01T12:17:57.972Z,8.83
2019-05-01T12:20:26.255Z,10.18
2019-05-01T12:22:54.481Z,10.65
2019-05-01T12:25:22.743Z,11.03
2019-05-01T12:27:50.968Z,9.03
2019-05-01T12:30:19.226Z,11.60
2019-05-01T12:32:47.468Z,11.90
2019-05-01T12:35:15.725Z,9.73
2019-05-01T12:37:44.129Z,8.28
2019-05-01T12:40:14.633Z,11.48
2019-05-01T12:42:42.887Z,7.90
2019-05-01T12:45:11.412Z,9.15
2019-05-01T12:47:41.306Z,9.45
2019-05-01T12:50:10.712Z,15.60
2019-05-01T12:52:43.314Z,7.37
2019-05-01T12:55:25.193Z,7.85
2019-05-01T12:57:53.428Z,10.40
2019-05-01T13:00:25.028Z,13.38
2019-05-01T13:02:53.273Z,8.03
2019-05-01T13:05:21.524Z,12.25
2019-05-01T13:07:52.387Z,9.63
2019-05-01T13:10:19.717Z,9.60
2019-05-01T13:12:47.973Z,9.98
2019-05-01T13:15:16.306Z,6.10
2019-05-01T13:17:44.546Z,9.13
2019-05-01T13:20:12.829Z,9.45
2019-05-01T13:22:41.068Z,7.33
2019-05-01T13:25:09.325Z,8.13
2019-05-01T13:27:42.162Z,6.42
2019-05-01T13:30:19.395Z,8.40
2019-05-01T13:32:49.298Z,8.43
2019-05-01T13:35:17.517Z,7.53
2019-05-01T13:37:45.773Z,9.35
2019-05-01T13:40:14.253Z,7.03
2019-05-01T13:42:42.528Z,11.08
2019-05-01T13:45:10.841Z,8.78
2019-05-01T13:47:39.169Z,10.08
2019-05-01T13:50:07.407Z,8.90
2019-05-01T13:52:36.500Z,7.85
2019-05-01T13:55:06.305Z,7.92
2019-05-01T13:57:34.562Z,6.60
2019-05-01T14:00:03.848Z,7.00
2019-05-01T14:02:32.120Z,6.30
2019-05-01T14:05:00.352Z,6.83
2019-05-01T14:07:28.641Z,9.20
2019-05-01T14:09:56.873Z,6.28
2019-05-01T14:12:25.126Z,5.97
2019-05-01T14:14:56.079Z,7.67
2019-05-01T14:17:24.321Z,13.10
2019-05-01T14:20:09.241Z,6.90
2019-05-01T14:22:39.138Z,5.58
2019-05-01T14:25:11.128Z,8.28
2019-05-01T14:27:39.376Z,8.53
2019-05-01T14:30:09.636Z,9.03
2019-05-01T14:32:37.881Z,7.20
2019-05-01T14:35:07.669Z,9.10
2019-05-01T14:37:35.906Z,9.30
2019-05-01T14:40:05.613Z,4.90
2019-05-01T14:42:33.857Z,6.53
2019-05-01T14:45:02.226Z,6.65
2019-05-01T14:47:30.477Z,6.15
2019-05-01T14:49:58.754Z,9.73
2019-05-01T14:52:27.005Z,9.48
2019-05-01T14:54:58.166Z,9.63
2019-05-01T14:57:26.444Z,10.38
2019-05-01T14:59:54.780Z,6.65
2019-05-01T15:02:23.028Z,6.47
2019-05-01T15:04:51.288Z,8.60
2019-05-01T15:07:19.537Z,7.30
2019-05-01T15:09:47.808Z,6.92
2019-05-01T15:12:16.040Z,7.97
2019-05-01T15:14:48.941Z,6.67
2019-05-01T15:17:18.829Z,7.20
2019-05-01T15:19:48.727Z,10.03
2019-05-01T15:22:16.991Z,6.47
2019-05-01T15:24:45.245Z,7.40
2019-05-01T15:27:13.504Z,8.53
2019-05-01T15:29:41.776Z,9.60
2019-05-01T15:32:09.993Z,7.30
2019-05-01T15:34:38.286Z,6.50
2019-05-01T15:37:06.503Z,4.87
2019-05-01T15:39:39.393Z,9.98
2019-05-01T15:42:09.285Z,10.10
2019-05-01T15:44:39.180Z,8.73
2019-05-01T15:47:07.462Z,8.43
2019-05-01T15:49:35.699Z,6.72
2019-05-01T15:52:03.957Z,10.98
2019-05-01T15:54:32.189Z,6.10
2019-05-01T15:57:00.445Z,7.10
2019-05-01T15:59:28.685Z,6.37
2019-05-01T16:01:57.027Z,10.60
2019-05-01T16:04:25.254Z,9.13
2019-05-01T16:06:53.512Z,5.25
2019-05-01T16:09:21.747Z,5.33
2019-05-01T16:12:07.889Z,11.10
2019-05-01T16:14:36.479Z,4.55
2019-05-01T16:17:04.817Z,6.87
2019-05-01T16:19:33.091Z,6.60
2019-05-01T16:22:01.414Z,6.35
2019-05-01T16:24:29.653Z,6.53
2019-05-01T16:26:59.557Z,7.75
2019-05-01T16:29:27.842Z,5.83
2019-05-01T16:31:56.103Z,9.55
2019-05-01T16:34:24.339Z,4.12
2019-05-01T16:36:52.606Z,5.70
2019-05-01T16:39:22.506Z,5.62
2019-05-01T16:41:50.856Z,6.00
2019-05-01T16:44:19.084Z,7.05
2019-05-01T16:46:47.387Z,8.93
2019-05-01T16:49:15.623Z,6.42
2019-05-01T16:51:43.894Z,6.35
2019-05-01T16:54:12.107Z,8.63
2019-05-01T16:56:40.387Z,4.65
2019-05-01T16:59:09.625Z,9.30
2019-05-01T17:01:51.588Z,4.55
2019-05-01T17:04:33.598Z,6.67
2019-05-01T17:07:09.132Z,5.30
2019-05-01T17:09:44.738Z,4.22
2019-05-01T17:12:14.462Z,6.30
2019-05-01T17:14:42.802Z,6.30
2019-05-01T17:17:12.703Z,8.48
2019-05-01T17:19:40.985Z,11.28
2019-05-01T17:22:14.296Z,6.25
2019-05-01T17:24:39.419Z,8.40
2019-05-01T17:27:07.678Z,5.87
2019-05-01T17:29:35.927Z,5.15
2019-05-01T17:32:05.391Z,4.83
2019-05-01T17:34:33.888Z,6.03
2019-05-01T17:37:02.153Z,5.17
2019-05-01T17:39:33.618Z,4.62
2019-05-01T17:42:03.369Z,5.53
2019-05-01T17:44:31.641Z,9.00
2019-05-01T17:46:59.909Z,5.92
2019-05-01T17:49:28.182Z,5.62
2019-05-01T17:51:56.557Z,5.12
2019-05-01T17:54:24.865Z,7.08
2019-05-01T17:56:53.843Z,5.28
2019-05-01T17:59:23.079Z,6.55
2019-05-01T18:01:55.780Z,4.30
2019-05-01T18:04:31.154Z,7.33
2019-05-01T18:06:59.861Z,7.60
2019-05-01T18:09:28.141Z,7.62
2019-05-01T18:11:56.406Z,7.08
2019-05-01T18:14:24.719Z,6.83
2019-05-01T18:16:53.018Z,6.17
2019-05-01T18:19:21.261Z,4.75
2019-05-01T18:21:51.923Z,6.90
2019-05-01T18:24:23.183Z,6.87
2019-05-01T18:26:53.796Z,6.92
2019-05-01T18:29:23.684Z,4.57
2019-05-01T18:31:52.025Z,6.12
2019-05-01T18:34:20.292Z,5.03
2019-05-01T18:36:50.192Z,6.12
2019-05-01T18:39:25.836Z,3.72
2019-05-01T18:41:54.636Z,6.33
2019-05-01T18:44:46.886Z,7.65
2019-05-01T18:47:12.265Z,7.20
2019-05-01T18:49:40.494Z,8.55
2019-05-01T18:52:09.385Z,5.03
2019-05-01T18:54:37.692Z,5.53
2019-05-01T18:57:06.071Z,5.37
2019-05-01T18:59:34.868Z,9.05
2019-05-01T19:02:04.854Z,7.30
2019-05-01T19:04:33.097Z,8.68
2019-05-01T19:07:01.369Z,7.97
2019-05-01T19:09:30.673Z,6.15
2019-05-01T19:11:59.296Z,6.78
2019-05-01T19:14:29.159Z,8.58
2019-05-01T19:16:58.581Z,8.53
2019-05-01T19:19:26.879Z,6.95
2019-05-01T19:21:55.180Z,6.97
2019-05-01T19:24:23.940Z,5.72
2019-05-01T19:26:52.231Z,7.72
2019-05-01T19:29:20.564Z,9.40
2019-05-01T19:31:48.794Z,13.20
2019-05-01T19:34:17.052Z,6.37
2019-05-01T19:36:46.294Z,8.43
2019-05-01T19:39:14.701Z,9.75
2019-05-01T19:41:43.795Z,9.40
2019-05-01T19:44:13.944Z,8.60
2019-05-01T19:46:42.938Z,8.28
2019-05-01T19:49:11.193Z,7.40
2019-05-01T19:51:39.451Z,8.05
2019-05-01T19:54:07.784Z,9.00
2019-05-01T19:56:36.026Z,8.85
2019-05-01T19:59:04.341Z,6.03
2019-05-01T20:01:32.656Z,7.67
2019-05-01T20:04:00.971Z,7.62
2019-05-01T20:06:29.233Z,6.10
2019-05-01T20:08:57.477Z,9.15
2019-05-01T20:11:25.825Z,12.05
2019-05-01T20:13:54.091Z,9.25
2019-05-01T20:16:23.007Z,6.80
2019-05-01T20:18:51.281Z,8.08
2019-05-01T20:21:19.530Z,5.80
2019-05-01T20:23:47.812Z,8.35
2019-05-01T20:26:16.056Z,5.37
2019-05-01T20:28:44.290Z,5.83
2019-05-01T20:31:12.558Z,8.93
2019-05-01T20:33:44.131Z,7.35
2019-05-01T20:36:10.800Z,8.78
2019-05-01T20:38:39.121Z,8.48
2019-05-01T20:41:10.125Z,7.85
2019-05-01T20:43:38.248Z,7.25
2019-05-01T20:46:10.073Z,9.30
2019-05-01T20:51:06.143Z,7.67
2019-05-01T20:53:34.380Z,7.28
2019-05-01T20:56:04.290Z,7.30
2019-05-01T20:58:32.535Z,7.28
2019-05-01T21:01:02.447Z,9.23
2019-05-01T21:03:31.188Z,7.15
2019-05-01T21:06:07.832Z,8.53
2019-05-01T21:08:39.282Z,7.72
2019-05-01T21:11:10.981Z,7.58
2019-05-01T21:13:37.521Z,7.80
2019-05-01T21:16:05.798Z,7.90
2019-05-01T21:18:34.082Z,7.50
2019-05-01T21:21:03.486Z,8.60
2019-05-01T21:23:33.422Z,10.25
2019-05-01T21:26:03.738Z,7.05
2019-05-01T21:28:33.919Z,8.78
2019-05-01T21:31:03.831Z,8.68
2019-05-01T21:33:33.840Z,8.93
2019-05-01T21:36:04.945Z,10.78
2019-05-01T21:38:31.833Z,8.78
2019-05-01T21:41:00.118Z,7.20
2019-05-01T21:43:33.176Z,7.17
2019-05-01T21:45:58.349Z,8.60
2019-05-01T21:48:26.590Z,8.63
2019-05-01T21:50:57.999Z,9.68
2019-05-01T21:53:27.840Z,6.87
2019-05-01T21:55:56.071Z,6.42
2019-05-01T21:58:28.284Z,9.63
2019-05-01T22:00:59.186Z,7.42
2019-05-01T22:03:25.042Z,6.62
2019-05-01T22:05:53.349Z,9.53
2019-05-01T22:08:21.695Z,10.25
2019-05-01T22:10:52.043Z,6.70
2019-05-01T22:13:24.048Z,8.03
2019-05-01T22:15:51.672Z,9.57
2019-05-01T22:18:24.543Z,6.65
2019-05-01T22:21:03.462Z,7.78
2019-05-01T22:23:52.653Z,7.30
2019-05-01T22:26:21.341Z,8.63
2019-05-01T22:28:54.803Z,6.80
2019-05-01T22:31:25.548Z,8.18
2019-05-01T22:33:55.450Z,7.83
2019-05-01T22:36:23.737Z,9.08
2019-05-01T22:38:52.006Z,5.72
2019-05-01T22:41:20.229Z,7.35
2019-05-01T22:43:48.564Z,7.03
2019-05-01T22:46:18.444Z,8.45
2019-05-01T22:48:46.690Z,8.98
2019-05-01T22:51:19.013Z,8.73
2019-05-01T22:53:48.900Z,8.57
2019-05-01T22:56:17.224Z,6.78
2019-05-01T22:58:45.517Z,7.28
2019-05-01T23:01:18.105Z,7.25
2019-05-01T23:03:48.142Z,6.22
2019-05-01T23:06:16.508Z,7.00
2019-05-01T23:08:44.743Z,5.95
2019-05-01T23:11:19.795Z,6.78
2019-05-01T23:13:43.660Z,7.00
2019-05-01T23:16:12.047Z,9.10
2019-05-01T23:18:40.288Z,8.45
2019-05-01T23:21:09.923Z,7.60
2019-05-01T23:23:38.489Z,7.77
2019-05-01T23:26:06.871Z,7.67
2019-05-01T23:28:39.642Z,7.95
2019-05-01T23:31:05.832Z,10.08
2019-05-01T23:33:34.069Z,8.40
2019-05-01T23:36:02.326Z,5.70
2019-05-01T23:38:30.569Z,6.80
2019-05-01T23:40:58.902Z,6.72
2019-05-01T23:43:27.772Z,12.28
2019-05-01T23:45:57.364Z,7.80
2019-05-01T23:48:25.602Z,8.50
2019-05-01T23:50:53.860Z,7.03
2019-05-01T23:53:22.086Z,8.13
2019-05-01T23:55:54.609Z,8.87
2019-05-01T23:58:20.297Z,14.20
